Time;durP1;ratioP1;P1;durP2;ratioP2;P2;SDS_P1;SDS_P2;PMS_P1;PMS_P2;Temp;Humidity;BMP_temperature;BMP_pressure;BME280_temperature;BME280_humidity;BME280_pressure;Samples;Min_cycle;Max_cycle;Signal;HPM_P1;HPM_P2
2022/10/30 00:01:12;;;;;;;;;;;18.90;73.20;;;;;;5108629;28;20368;-84
2022/10/30 00:03:38;;;;;;;;;;;18.90;73.20;;;;;;5071139;28;19971;-84
2022/10/30 00:06:05;;;;;;;;;;;19.00;73.30;;;;;;5065358;28;20361;-86
2022/10/30 00:08:31;;;;;;;;;;;19.00;73.30;;;;;;5095320;28;19956;-84
2022/10/30 00:10:56;;;;;;;;;;;18.90;73.30;;;;;;5092840;28;19967;-83
2022/10/30 00:13:22;;;;;;;;;;;18.90;73.20;;;;;;5088449;28;19917;-83
2022/10/30 00:15:51;;;;;;;;;;;18.90;73.30;;;;;;5098861;28;19935;-84
2022/10/30 00:18:17;;;;;;;;;;;18.90;73.30;;;;;;5086594;28;19965;-84
2022/10/30 00:20:43;;;;;;;;;;;18.90;73.30;;;;;;5095364;28;19916;-85
2022/10/30 00:23:08;;;;;;;;;;;18.80;73.20;;;;;;5089185;28;19920;-84
2022/10/30 00:25:35;;;;;;;;;;;18.80;73.30;;;;;;5074310;28;19918;-83
2022/10/30 00:28:01;;;;;;;;;;;18.80;73.30;;;;;;5072405;28;19912;-88
2022/10/30 00:30:26;;;;;;;;;;;18.80;73.30;;;;;;5085058;28;19968;-85
2022/10/30 00:32:52;;;;;;;;;;;18.80;73.30;;;;;;5091995;28;19917;-84
2022/10/30 00:35:18;;;;;;;;;;;18.80;73.30;;;;;;5112116;27;20383;-84
2022/10/30 00:37:43;;;;;;;;;;;18.70;73.30;;;;;;5088670;28;19916;-83
2022/10/30 00:40:15;;;;;;;;;;;18.80;73.30;;;;;;5100447;28;19923;-84
2022/10/30 00:42:41;;;;;;;;;;;18.70;73.30;;;;;;5099928;28;19954;-84
2022/10/30 00:45:10;;;;;;;;;;;18.70;73.30;;;;;;5078905;28;19960;-84
2022/10/30 00:47:46;;;;;;;;;;;18.70;73.30;;;;;;5112673;27;19944;-85
2022/10/30 00:50:15;;;;;;;;;;;18.70;73.30;;;;;;5080748;28;19927;-84
2022/10/30 00:53:03;;;;;;;;;;;18.70;73.30;;;;;;5086133;28;20352;-84
2022/10/30 00:55:32;;;;;;;;;;;18.60;73.20;;;;;;5092704;28;19927;-83
2022/10/30 00:58:00;;;;;;;;;;;18.60;73.30;;;;;;5092507;28;20357;-86
2022/10/30 01:00:27;;;;;;;;;;;18.60;73.30;;;;;;5096122;28;19911;-83
2022/10/30 01:02:54;;;;;;;;;;;18.60;73.30;;;;;;5087817;28;20007;-85
2022/10/30 01:05:22;;;;;;;;;;;18.60;73.30;;;;;;5095028;28;19912;-84
2022/10/30 01:07:48;;;;;;;;;;;18.50;73.20;;;;;;5079810;28;19915;-83
2022/10/30 01:10:14;;;;;;;;;;;18.50;73.20;;;;;;5090460;28;20061;-84
2022/10/30 01:12:40;;;;;;;;;;;18.50;73.20;;;;;;5098092;28;19916;-83
2022/10/30 01:15:06;;;;;;;;;;;18.50;73.30;;;;;;5114859;27;19916;-83
2022/10/30 01:17:38;;;;;;;;;;;18.50;73.30;;;;;;5111291;27;19919;-84
2022/10/30 01:20:07;;;;;;;;;;;18.50;73.30;;;;;;5083391;28;19912;-83
2022/10/30 01:22:54;;;;;;;;;;;18.50;73.30;;;;;;5107180;27;19912;-84
2022/10/30 01:25:34;;;;;;;;;;;18.40;73.30;;;;;;5085383;28;19920;-83
2022/10/30 01:28:09;;;;;;;;;;;18.40;73.30;;;;;;5089031;28;19920;-83
2022/10/30 01:30:45;;;;;;;;;;;18.40;73.30;;;;;;5109876;27;19915;-86
2022/10/30 01:33:30;;;;;;;;;;;18.40;73.30;;;;;;5094333;28;19962;-85
2022/10/30 01:35:59;;;;;;;;;;;18.30;73.30;;;;;;5109322;27;19943;-83
2022/10/30 01:38:34;;;;;;;;;;;18.30;73.40;;;;;;5082051;28;19912;-83
2022/10/30 01:40:59;;;;;;;;;;;18.30;73.30;;;;;;5085697;28;20357;-83
2022/10/30 01:43:25;;;;;;;;;;;18.30;73.30;;;;;;5082120;28;19920;-84
2022/10/30 01:45:54;;;;;;;;;;;18.20;73.30;;;;;;5071384;28;20262;-83
2022/10/30 01:48:22;;;;;;;;;;;18.20;73.40;;;;;;5096896;28;19964;-83
2022/10/30 01:50:59;;;;;;;;;;;18.20;73.40;;;;;;5077121;28;19927;-84
2022/10/30 01:53:33;;;;;;;;;;;18.20;73.40;;;;;;5107734;28;20297;-83
2022/10/30 01:56:11;;;;;;;;;;;18.10;73.40;;;;;;5083503;28;19920;-84
2022/10/30 01:58:49;;;;;;;;;;;18.10;73.40;;;;;;5087913;28;19913;-84
2022/10/30 02:01:16;;;;;;;;;;;18.10;73.40;;;;;;5105017;27;20349;-83
2022/10/30 02:03:42;;;;;;;;;;;18.10;73.50;;;;;;5067286;28;19973;-83
2022/10/30 02:06:08;;;;;;;;;;;18.00;73.40;;;;;;5105845;27;19943;-83
2022/10/30 02:08:34;;;;;;;;;;;18.10;73.50;;;;;;5088938;28;20360;-83
2022/10/30 02:10:59;;;;;;;;;;;18.00;73.50;;;;;;5082766;28;19946;-84
2022/10/30 02:13:37;;;;;;;;;;;18.00;73.50;;;;;;5092650;28;19918;-86
2022/10/30 02:16:02;;;;;;;;;;;18.00;73.50;;;;;;5107023;28;19920;-84
2022/10/30 02:18:28;;;;;;;;;;;18.00;73.50;;;;;;5062254;28;19920;-83
2022/10/30 02:20:54;;;;;;;;;;;18.00;73.50;;;;;;5110390;27;19923;-84
2022/10/30 02:23:21;;;;;;;;;;;17.90;74.20;;;;;;5094163;28;20351;-85
2022/10/30 02:25:48;;;;;;;;;;;17.90;73.50;;;;;;5100533;28;19926;-83
2022/10/30 02:28:14;;;;;;;;;;;17.90;73.50;;;;;;5077336;28;20353;-85
2022/10/30 02:30:42;;;;;;;;;;;17.90;73.50;;;;;;5081910;28;19927;-84
2022/10/30 02:33:08;;;;;;;;;;;17.90;73.60;;;;;;5100552;27;19951;-84
2022/10/30 02:35:34;;;;;;;;;;;17.90;73.50;;;;;;5059559;28;20423;-84
2022/10/30 02:38:00;;;;;;;;;;;17.90;73.50;;;;;;5079791;28;20043;-86
2022/10/30 02:40:26;;;;;;;;;;;17.90;73.50;;;;;;5088947;28;19916;-84
2022/10/30 02:42:53;;;;;;;;;;;17.90;73.50;;;;;;5095069;28;19970;-83
2022/10/30 02:45:19;;;;;;;;;;;17.80;73.50;;;;;;5059399;28;19960;-83
2022/10/30 02:47:44;;;;;;;;;;;17.80;73.50;;;;;;5090626;28;20471;-83
2022/10/30 02:50:10;;;;;;;;;;;17.80;73.50;;;;;;5088953;28;19955;-83
2022/10/30 02:52:36;;;;;;;;;;;17.80;73.50;;;;;;5074875;28;19928;-82
2022/10/30 02:55:02;;;;;;;;;;;17.80;73.50;;;;;;5069881;28;20353;-84
2022/10/30 02:57:28;;;;;;;;;;;17.70;73.40;;;;;;5092233;28;20303;-84
2022/10/30 02:59:54;;;;;;;;;;;17.70;73.50;;;;;;5099574;27;19977;-85
2022/10/30 03:02:19;;;;;;;;;;;17.70;73.50;;;;;;5091307;28;20365;-84
2022/10/30 03:04:45;;;;;;;;;;;17.70;74.10;;;;;;5055662;28;19916;-84
2022/10/30 03:07:11;;;;;;;;;;;17.70;73.50;;;;;;5093585;28;19912;-83
2022/10/30 03:09:37;;;;;;;;;;;17.70;73.50;;;;;;5078059;28;19976;-83
2022/10/30 03:12:03;;;;;;;;;;;17.70;73.60;;;;;;5093013;28;20089;-85
2022/10/30 03:14:28;;;;;;;;;;;17.60;73.50;;;;;;5105991;27;20444;-83
2022/10/30 03:16:54;;;;;;;;;;;17.60;73.50;;;;;;5059276;28;19920;-83
2022/10/30 03:19:19;;;;;;;;;;;17.60;73.50;;;;;;5102962;28;20280;-84
2022/10/30 03:21:45;;;;;;;;;;;17.60;73.50;;;;;;5090332;28;19923;-88
2022/10/30 03:24:13;;;;;;;;;;;17.60;73.60;;;;;;5092620;28;19924;-85
2022/10/30 03:26:38;;;;;;;;;;;17.60;73.50;;;;;;5065415;28;19924;-83
2022/10/30 03:29:06;;;;;;;;;;;17.50;73.50;;;;;;5082049;28;19927;-87
2022/10/30 03:31:32;;;;;;;;;;;17.50;73.50;;;;;;5052954;28;19920;-84
2022/10/30 03:34:27;;;;;;;;;;;17.50;73.50;;;;;;5073368;28;19920;-83
2022/10/30 03:36:53;;;;;;;;;;;17.50;73.60;;;;;;5084070;28;20284;-82
2022/10/30 03:39:19;;;;;;;;;;;17.50;73.60;;;;;;5078749;28;20308;-83
2022/10/30 03:41:45;;;;;;;;;;;17.50;73.60;;;;;;5082741;28;20011;-83
2022/10/30 03:44:11;;;;;;;;;;;17.40;73.60;;;;;;5107751;28;20249;-82
2022/10/30 03:46:37;;;;;;;;;;;17.40;73.60;;;;;;5098157;28;19916;-83
2022/10/30 03:49:26;;;;;;;;;;;17.40;73.60;;;;;;5080515;28;19923;-83
2022/10/30 03:51:53;;;;;;;;;;;17.40;73.60;;;;;;5100659;28;19972;-83
2022/10/30 03:54:18;;;;;;;;;;;17.40;73.60;;;;;;5091936;28;20004;-83
2022/10/30 03:56:45;;;;;;;;;;;17.30;73.60;;;;;;5092290;28;19931;-82
2022/10/30 03:59:13;;;;;;;;;;;17.30;73.60;;;;;;5082048;28;19908;-84
2022/10/30 04:01:40;;;;;;;;;;;17.30;73.70;;;;;;5105537;28;19920;-84
2022/10/30 04:04:06;;;;;;;;;;;17.30;73.70;;;;;;5099057;28;19966;-84
2022/10/30 04:06:31;;;;;;;;;;;17.30;73.70;;;;;;5098578;28;19915;-84
2022/10/30 04:08:57;;;;;;;;;;;17.20;73.60;;;;;;5091473;28;19963;-85
2022/10/30 04:11:23;;;;;;;;;;;17.20;73.70;;;;;;5066691;28;20398;-84
2022/10/30 04:13:49;;;;;;;;;;;17.20;73.60;;;;;;5076887;28;19966;-84
2022/10/30 04:16:15;;;;;;;;;;;17.20;73.70;;;;;;5082033;28;20387;-82
2022/10/30 04:18:43;;;;;;;;;;;17.20;73.60;;;;;;5080926;28;19916;-85
2022/10/30 04:21:08;;;;;;;;;;;17.20;73.70;;;;;;5110250;27;19923;-83
2022/10/30 04:23:35;;;;;;;;;;;17.20;73.70;;;;;;5086776;28;19923;-86
2022/10/30 04:26:02;;;;;;;;;;;17.10;73.60;;;;;;5102795;27;19967;-83
2022/10/30 04:28:28;;;;;;;;;;;17.10;73.60;;;;;;5078470;28;19960;-83
2022/10/30 04:30:55;;;;;;;;;;;17.10;73.60;;;;;;5065629;28;19920;-83
2022/10/30 04:33:20;;;;;;;;;;;17.10;73.60;;;;;;5094622;28;20007;-83
2022/10/30 04:35:47;;;;;;;;;;;17.10;73.60;;;;;;5082723;28;19935;-83
2022/10/30 04:38:18;;;;;;;;;;;17.10;73.70;;;;;;5069853;28;19970;-84
2022/10/30 04:40:44;;;;;;;;;;;17.10;73.70;;;;;;5096450;28;19923;-84
2022/10/30 04:43:11;;;;;;;;;;;17.10;73.70;;;;;;5097984;28;20288;-83
2022/10/30 04:45:37;;;;;;;;;;;17.00;73.70;;;;;;5099543;28;19947;-83
2022/10/30 04:48:05;;;;;;;;;;;17.00;73.70;;;;;;5094789;28;19923;-84
2022/10/30 04:50:31;;;;;;;;;;;17.00;73.70;;;;;;5121409;27;20349;-83
2022/10/30 04:53:01;;;;;;;;;;;17.00;73.70;;;;;;5088274;28;19927;-83
2022/10/30 04:55:27;;;;;;;;;;;17.00;73.70;;;;;;5087738;28;19912;-83
2022/10/30 04:57:57;;;;;;;;;;;16.90;73.70;;;;;;5084720;28;19912;-83
2022/10/30 05:00:23;;;;;;;;;;;16.90;73.70;;;;;;5097098;28;21872;-83
2022/10/30 05:02:49;;;;;;;;;;;16.90;73.70;;;;;;5073575;28;19923;-84
2022/10/30 05:05:14;;;;;;;;;;;16.90;73.70;;;;;;5070815;28;19912;-83
2022/10/30 05:07:40;;;;;;;;;;;16.90;73.70;;;;;;5076429;28;20399;-82
2022/10/30 05:10:10;;;;;;;;;;;16.90;73.70;;;;;;5081691;28;20331;-80
2022/10/30 05:12:36;;;;;;;;;;;16.90;73.70;;;;;;5100425;28;19916;-83
2022/10/30 05:15:02;;;;;;;;;;;16.80;73.70;;;;;;5105849;28;19970;-82
2022/10/30 05:17:28;;;;;;;;;;;16.80;73.70;;;;;;5080152;28;19924;-83
2022/10/30 05:19:55;;;;;;;;;;;16.80;73.80;;;;;;5050644;28;19990;-83
2022/10/30 05:22:21;;;;;;;;;;;16.80;73.70;;;;;;5080195;28;19992;-83
2022/10/30 05:24:46;;;;;;;;;;;16.80;73.80;;;;;;5073311;28;20371;-82
2022/10/30 05:27:12;;;;;;;;;;;16.70;73.70;;;;;;5092111;28;20261;-82
2022/10/30 05:29:38;;;;;;;;;;;16.70;73.70;;;;;;5094470;28;20015;-83
2022/10/30 05:32:04;;;;;;;;;;;16.70;73.70;;;;;;5096640;28;20010;-82
2022/10/30 05:34:42;;;;;;;;;;;16.70;73.80;;;;;;5080470;28;20422;-84
2022/10/30 05:37:08;;;;;;;;;;;16.70;73.80;;;;;;5095489;28;20014;-83
2022/10/30 05:39:34;;;;;;;;;;;16.70;73.80;;;;;;5073555;28;20332;-82
2022/10/30 05:42:00;;;;;;;;;;;16.70;73.80;;;;;;5108616;27;19944;-83
2022/10/30 05:44:37;;;;;;;;;;;16.70;73.80;;;;;;5080962;28;19916;-83
2022/10/30 05:47:04;;;;;;;;;;;16.70;73.80;;;;;;5089997;28;19917;-83
2022/10/30 05:49:32;;;;;;;;;;;16.60;73.80;;;;;;5098340;28;19970;-83
2022/10/30 05:51:59;;;;;;;;;;;16.60;73.80;;;;;;5102145;28;19931;-82
2022/10/30 05:54:25;;;;;;;;;;;16.60;73.90;;;;;;5082008;28;19908;-82
2022/10/30 05:57:01;;;;;;;;;;;16.60;73.80;;;;;;5092793;28;19939;-85
2022/10/30 05:59:28;;;;;;;;;;;16.60;73.90;;;;;;5094092;28;19960;-84
2022/10/30 06:01:54;;;;;;;;;;;16.60;73.80;;;;;;5081657;28;19915;-82
2022/10/30 06:04:22;;;;;;;;;;;16.60;73.80;;;;;;5093344;28;20010;-84
2022/10/30 06:06:47;;;;;;;;;;;16.50;73.80;;;;;;5075914;28;20049;-84
2022/10/30 06:09:13;;;;;;;;;;;16.50;73.80;;;;;;5092018;28;19927;-83
2022/10/30 06:11:57;;;;;;;;;;;16.50;73.80;;;;;;5093443;28;19973;-82
2022/10/30 06:14:36;;;;;;;;;;;16.50;73.80;;;;;;5103494;28;19951;-83
2022/10/30 06:17:03;;;;;;;;;;;16.50;73.90;;;;;;5076332;28;19923;-84
2022/10/30 06:19:31;;;;;;;;;;;16.50;73.90;;;;;;5087578;28;19974;-83
2022/10/30 06:22:09;;;;;;;;;;;16.40;73.80;;;;;;5072991;28;20364;-85
2022/10/30 06:24:47;;;;;;;;;;;16.40;73.90;;;;;;5089580;28;19927;-84
2022/10/30 06:27:15;;;;;;;;;;;16.40;73.90;;;;;;5087485;28;19912;-84
2022/10/30 06:29:41;;;;;;;;;;;16.40;73.90;;;;;;5073315;28;19935;-84
2022/10/30 06:32:07;;;;;;;;;;;16.40;73.90;;;;;;5074619;28;19920;-82
2022/10/30 06:34:33;;;;;;;;;;;16.40;73.90;;;;;;5077580;28;19925;-83
2022/10/30 06:36:59;;;;;;;;;;;16.40;73.90;;;;;;5073723;28;19920;-83
2022/10/30 06:39:25;;;;;;;;;;;16.30;73.90;;;;;;5073737;28;19916;-84
2022/10/30 06:42:10;;;;;;;;;;;16.30;73.90;;;;;;5090866;28;19916;-84
2022/10/30 06:45:08;;;;;;;;;;;16.30;73.90;;;;;;5082950;27;19916;-84
2022/10/30 06:47:34;;;;;;;;;;;16.30;73.90;;;;;;5111247;27;20296;-84
2022/10/30 06:50:01;;;;;;;;;;;16.30;73.90;;;;;;5055433;28;19920;-84
2022/10/30 06:52:28;;;;;;;;;;;16.30;74.00;;;;;;5096907;28;19920;-86
2022/10/30 06:54:54;;;;;;;;;;;16.20;73.90;;;;;;5075434;28;20014;-84
2022/10/30 06:57:38;;;;;;;;;;;16.20;73.90;;;;;;5103538;27;20332;-84
2022/10/30 07:00:39;;;;;;;;;;;16.20;73.90;;;;;;5014341;28;19964;-85
2022/10/30 07:03:23;;;;;;;;;;;16.20;74.00;;;;;;5081492;28;20015;-85
2022/10/30 07:05:50;;;;;;;;;;;16.20;74.00;;;;;;5088862;28;19987;-84
2022/10/30 07:08:16;;;;;;;;;;;16.20;74.10;;;;;;5092530;28;19931;-87
2022/10/30 07:10:42;;;;;;;;;;;16.10;74.00;;;;;;5077932;28;19928;-85
2022/10/30 07:13:26;;;;;;;;;;;16.10;74.00;;;;;;5086707;28;19944;-86
2022/10/30 07:16:02;;;;;;;;;;;16.10;74.10;;;;;;5085424;28;19999;-82
2022/10/30 07:18:33;;;;;;;;;;;16.10;74.10;;;;;;5098090;28;19912;-84
2022/10/30 07:21:00;;;;;;;;;;;16.10;74.70;;;;;;5083215;28;20329;-83
2022/10/30 07:23:27;;;;;;;;;;;16.10;74.10;;;;;;5074417;28;19939;-84
2022/10/30 07:26:00;;;;;;;;;;;16.10;74.10;;;;;;5076964;28;19916;-83
2022/10/30 07:28:34;;;;;;;;;;;16.10;74.10;;;;;;5076776;28;19919;-80
2022/10/30 07:31:18;;;;;;;;;;;16.10;74.10;;;;;;5105035;28;19935;-83
2022/10/30 07:33:50;;;;;;;;;;;16.10;74.10;;;;;;5088622;28;19960;-85
2022/10/30 07:36:33;;;;;;;;;;;16.00;74.10;;;;;;5094594;28;19928;-83
2022/10/30 07:39:09;;;;;;;;;;;16.00;74.10;;;;;;5107630;27;19920;-84
2022/10/30 07:41:50;;;;;;;;;;;16.00;74.10;;;;;;5078120;28;20329;-84
2022/10/30 07:44:35;;;;;;;;;;;16.00;74.10;;;;;;5101239;28;19965;-84
2022/10/30 07:47:26;;;;;;;;;;;16.00;74.10;;;;;;5083954;28;19917;-83
2022/10/30 07:50:10;;;;;;;;;;;16.00;74.20;;;;;;5085922;28;20417;-84
2022/10/30 07:52:37;;;;;;;;;;;16.00;74.20;;;;;;5091943;28;20015;-84
2022/10/30 07:55:03;;;;;;;;;;;16.00;74.20;;;;;;5092074;28;19943;-84
2022/10/30 07:57:51;;;;;;;;;;;16.00;74.20;;;;;;5081507;28;19912;-83
2022/10/30 08:00:37;;;;;;;;;;;16.00;74.20;;;;;;5092254;28;19951;-83
2022/10/30 08:03:18;;;;;;;;;;;16.00;74.20;;;;;;5096098;28;20003;-83
2022/10/30 08:05:50;;;;;;;;;;;16.00;74.90;;;;;;5063975;28;19952;-83
2022/10/30 08:08:27;;;;;;;;;;;15.90;74.20;;;;;;5085855;28;19916;-82
2022/10/30 08:11:05;;;;;;;;;;;16.00;74.20;;;;;;5069755;28;19980;-82
2022/10/30 08:13:31;;;;;;;;;;;15.90;74.20;;;;;;5092820;28;19925;-84
2022/10/30 08:15:57;;;;;;;;;;;16.00;74.30;;;;;;5081381;28;19920;-82
2022/10/30 08:18:23;;;;;;;;;;;15.90;74.30;;;;;;5095671;28;20373;-82
2022/10/30 08:20:49;;;;;;;;;;;15.90;74.30;;;;;;5073648;28;19972;-82
2022/10/30 08:23:16;;;;;;;;;;;15.90;74.20;;;;;;5079882;28;20361;-82
2022/10/30 08:25:42;;;;;;;;;;;15.90;74.30;;;;;;5087483;28;19912;-82
2022/10/30 08:28:10;;;;;;;;;;;15.90;74.30;;;;;;5093871;28;19920;-82
2022/10/30 08:30:37;;;;;;;;;;;16.00;74.30;;;;;;5093012;28;21770;-82
2022/10/30 08:33:08;;;;;;;;;;;15.90;74.30;;;;;;5085716;28;20112;-82
2022/10/30 08:36:09;;;;;;;;;;;15.90;74.30;;;;;;5088886;28;19920;-83
2022/10/30 08:38:36;;;;;;;;;;;15.90;74.30;;;;;;5079716;28;19916;-82
2022/10/30 08:41:10;;;;;;;;;;;15.90;74.40;;;;;;5086804;28;20026;-81
2022/10/30 08:43:42;;;;;;;;;;;15.90;74.30;;;;;;5089902;28;20275;-79
2022/10/30 08:46:08;;;;;;;;;;;16.00;74.40;;;;;;5084615;28;19923;-79
2022/10/30 08:48:34;;;;;;;;;;;15.90;74.40;;;;;;5088797;28;19963;-86
2022/10/30 08:51:00;;;;;;;;;;;16.00;74.40;;;;;;5105080;28;19921;-79
2022/10/30 08:53:31;;;;;;;;;;;16.00;74.40;;;;;;5106047;28;19951;-80
2022/10/30 08:55:57;;;;;;;;;;;16.00;74.50;;;;;;5096586;28;20029;-81
2022/10/30 08:58:35;;;;;;;;;;;16.10;74.50;;;;;;5100935;28;20280;-80
2022/10/30 09:01:01;;;;;;;;;;;16.00;74.40;;;;;;5082258;28;19931;-82
2022/10/30 09:03:46;;;;;;;;;;;16.00;75.10;;;;;;5095490;28;20276;-82
2022/10/30 09:06:30;;;;;;;;;;;16.10;74.50;;;;;;5099024;28;20410;-82
2022/10/30 09:09:20;;;;;;;;;;;16.10;74.50;;;;;;5090675;28;19916;-81
2022/10/30 09:11:50;;;;;;;;;;;16.10;74.50;;;;;;5094874;28;19912;-81
2022/10/30 09:14:16;;;;;;;;;;;16.10;74.50;;;;;;5060893;28;19916;-80
2022/10/30 09:16:42;;;;;;;;;;;16.10;74.50;;;;;;5074045;28;19918;-81
2022/10/30 09:19:08;;;;;;;;;;;16.20;74.60;;;;;;5076907;28;19920;-83
2022/10/30 09:21:34;;;;;;;;;;;16.20;74.60;;;;;;5077806;28;19958;-81
2022/10/30 09:24:00;;;;;;;;;;;16.20;74.60;;;;;;5074166;28;20325;-83
2022/10/30 09:26:34;;;;;;;;;;;16.20;74.60;;;;;;5087900;28;19912;-83
2022/10/30 09:29:10;;;;;;;;;;;16.30;74.60;;;;;;5098312;28;20319;-82
2022/10/30 09:31:38;;;;;;;;;;;16.30;74.60;;;;;;5095685;28;20024;-82
2022/10/30 09:34:07;;;;;;;;;;;16.30;74.60;;;;;;5093242;28;20042;-80
2022/10/30 09:36:48;;;;;;;;;;;16.30;74.50;;;;;;5109923;27;20368;-82
2022/10/30 09:39:14;;;;;;;;;;;16.40;74.60;;;;;;5100956;27;19961;-81
2022/10/30 09:41:58;;;;;;;;;;;16.40;74.50;;;;;;5096662;27;20385;-83
2022/10/30 09:44:29;;;;;;;;;;;16.40;74.50;;;;;;5067532;28;20437;-81
2022/10/30 09:47:05;;;;;;;;;;;16.50;74.50;;;;;;5092978;28;19981;-82
2022/10/30 09:49:30;;;;;;;;;;;16.50;74.50;;;;;;5095936;27;20463;-82
2022/10/30 09:52:19;;;;;;;;;;;16.50;74.50;;;;;;5075563;28;19924;-84
2022/10/30 09:55:04;;;;;;;;;;;16.60;74.60;;;;;;5068569;28;19986;-80
2022/10/30 09:57:33;;;;;;;;;;;16.60;74.60;;;;;;5061015;28;20546;-81
2022/10/30 10:00:09;;;;;;;;;;;16.70;74.60;;;;;;5094058;28;20008;-83
2022/10/30 10:02:59;;;;;;;;;;;16.70;74.70;;;;;;5076708;28;20420;-81
2022/10/30 10:05:47;;;;;;;;;;;16.70;74.70;;;;;;5091585;28;19916;-81
2022/10/30 10:08:41;;;;;;;;;;;16.80;74.80;;;;;;5082989;28;20307;-82
2022/10/30 10:11:37;;;;;;;;;;;16.80;74.90;;;;;;5076933;28;19964;-80
2022/10/30 10:14:07;;;;;;;;;;;16.80;75.00;;;;;;5092335;28;20549;-81
2022/10/30 10:16:35;;;;;;;;;;;16.90;75.10;;;;;;5064245;28;20577;-81
2022/10/30 10:19:13;;;;;;;;;;;16.90;75.20;;;;;;5082072;28;19927;-81
2022/10/30 10:21:42;;;;;;;;;;;17.00;75.90;;;;;;5074132;28;19916;-82
2022/10/30 10:24:14;;;;;;;;;;;17.00;75.40;;;;;;5074096;28;19926;-81
2022/10/30 10:26:49;;;;;;;;;;;17.00;75.40;;;;;;5089026;28;19916;-82
2022/10/30 10:29:19;;;;;;;;;;;17.00;75.40;;;;;;5088335;28;19920;-81
2022/10/30 10:32:04;;;;;;;;;;;17.10;75.60;;;;;;5085389;28;19923;-81
2022/10/30 10:34:30;;;;;;;;;;;17.20;75.70;;;;;;5093297;27;19993;-82
2022/10/30 10:37:12;;;;;;;;;;;17.20;75.70;;;;;;5076951;28;20615;-81
2022/10/30 10:39:57;;;;;;;;;;;17.20;75.70;;;;;;5075551;28;19958;-82
2022/10/30 10:42:32;;;;;;;;;;;17.20;75.80;;;;;;5077460;28;19961;-82
2022/10/30 10:45:15;;;;;;;;;;;17.30;75.80;;;;;;5079632;28;19989;-81
2022/10/30 10:48:00;;;;;;;;;;;17.30;75.90;;;;;;5073378;28;19999;-81
2022/10/30 10:50:52;;;;;;;;;;;17.30;75.90;;;;;;5070875;28;19929;-80
2022/10/30 10:53:21;;;;;;;;;;;17.40;76.00;;;;;;5072158;28;19942;-82
2022/10/30 10:55:49;;;;;;;;;;;17.40;76.00;;;;;;5074204;28;20011;-81
2022/10/30 10:58:26;;;;;;;;;;;17.50;76.20;;;;;;5087451;28;19958;-82
2022/10/30 11:00:52;;;;;;;;;;;17.50;76.10;;;;;;5091500;27;19920;-82
2022/10/30 11:03:24;;;;;;;;;;;17.50;76.10;;;;;;5087502;27;20365;-83
2022/10/30 11:05:52;;;;;;;;;;;17.50;76.10;;;;;;5076738;28;20426;-81
2022/10/30 11:08:26;;;;;;;;;;;17.60;76.20;;;;;;5090909;27;19921;-83
2022/10/30 11:10:56;;;;;;;;;;;17.60;76.20;;;;;;5077119;28;19974;-82
2022/10/30 11:13:23;;;;;;;;;;;17.70;76.30;;;;;;5076292;28;20792;-81
2022/10/30 11:15:55;;;;;;;;;;;17.70;76.20;;;;;;5076426;28;19916;-81
2022/10/30 11:18:21;;;;;;;;;;;17.70;76.20;;;;;;5076365;28;19920;-82
2022/10/30 11:20:47;;;;;;;;;;;17.80;76.90;;;;;;5091640;28;19917;-82
2022/10/30 11:23:45;;;;;;;;;;;17.80;76.30;;;;;;5076622;28;19912;-81
2022/10/30 11:26:16;;;;;;;;;;;17.80;76.30;;;;;;5038663;28;19927;-82
2022/10/30 11:28:57;;;;;;;;;;;17.80;76.90;;;;;;5067258;28;19922;-82
2022/10/30 11:31:29;;;;;;;;;;;17.90;76.30;;;;;;5078454;28;19924;-81
2022/10/30 11:33:54;;;;;;;;;;;17.90;76.30;;;;;;5077836;28;19929;-80
2022/10/30 11:36:24;;;;;;;;;;;18.00;76.30;;;;;;5074985;28;19984;-82
2022/10/30 11:38:50;;;;;;;;;;;18.00;76.40;;;;;;5077521;28;19927;-82
2022/10/30 11:41:16;;;;;;;;;;;18.00;76.30;;;;;;5074140;28;19938;-83
2022/10/30 11:43:42;;;;;;;;;;;18.00;76.30;;;;;;5093923;28;19969;-82
2022/10/30 11:46:09;;;;;;;;;;;18.10;76.40;;;;;;5093085;28;20254;-82
2022/10/30 11:48:36;;;;;;;;;;;18.10;76.40;;;;;;5090381;28;20273;-82
2022/10/30 11:51:02;;;;;;;;;;;18.10;76.40;;;;;;5090616;28;19924;-81
2022/10/30 11:53:33;;;;;;;;;;;18.20;76.40;;;;;;5077446;28;20322;-81
2022/10/30 11:56:00;;;;;;;;;;;18.20;76.40;;;;;;5076596;28;20632;-81
2022/10/30 11:58:36;;;;;;;;;;;18.20;76.40;;;;;;5084117;28;20486;-81
2022/10/30 12:01:04;;;;;;;;;;;18.20;76.40;;;;;;5073988;28;19921;-82
2022/10/30 12:03:34;;;;;;;;;;;18.30;76.50;;;;;;5077780;28;19921;-82
2022/10/30 12:06:09;;;;;;;;;;;18.30;76.40;;;;;;5077131;28;19921;-81
2022/10/30 12:08:34;;;;;;;;;;;18.30;76.40;;;;;;5093828;28;19927;-81
2022/10/30 12:11:04;;;;;;;;;;;18.40;76.40;;;;;;5073116;28;19924;-82
2022/10/30 12:13:36;;;;;;;;;;;18.40;76.40;;;;;;5081021;28;19925;-82
2022/10/30 12:16:11;;;;;;;;;;;18.50;76.50;;;;;;5078509;28;19920;-82
2022/10/30 12:18:38;;;;;;;;;;;18.50;76.50;;;;;;5096023;28;19912;-82
2022/10/30 12:21:04;;;;;;;;;;;18.50;76.50;;;;;;5090779;28;19955;-83
2022/10/30 12:23:30;;;;;;;;;;;18.60;76.50;;;;;;5084036;28;19958;-83
2022/10/30 12:25:57;;;;;;;;;;;18.60;76.50;;;;;;5095360;28;19959;-81
2022/10/30 12:28:28;;;;;;;;;;;18.60;76.50;;;;;;5083308;28;19981;-82
2022/10/30 12:30:59;;;;;;;;;;;18.60;76.40;;;;;;5091011;28;20062;-82
2022/10/30 12:33:28;;;;;;;;;;;18.70;76.50;;;;;;5096806;28;19924;-81
2022/10/30 12:35:58;;;;;;;;;;;18.70;76.50;;;;;;5087546;28;19928;-82
2022/10/30 12:38:39;;;;;;;;;;;18.80;76.60;;;;;;5092216;28;20713;-82
2022/10/30 12:41:30;;;;;;;;;;;18.80;76.50;;;;;;5094248;28;19912;-82
2022/10/30 12:44:22;;;;;;;;;;;18.80;76.60;;;;;;5076855;28;20007;-81
2022/10/30 12:46:58;;;;;;;;;;;18.80;76.50;;;;;;5068244;28;19911;-82
2022/10/30 12:49:28;;;;;;;;;;;18.90;76.60;;;;;;5080974;28;20006;-82
2022/10/30 12:52:06;;;;;;;;;;;18.90;76.60;;;;;;5078746;28;20389;-81
2022/10/30 12:54:39;;;;;;;;;;;18.90;76.60;;;;;;5097137;28;20334;-81
2022/10/30 12:57:13;;;;;;;;;;;18.90;76.60;;;;;;5093596;28;20003;-81
2022/10/30 12:59:50;;;;;;;;;;;18.90;76.60;;;;;;5083143;28;20024;-82
2022/10/30 13:02:22;;;;;;;;;;;19.00;76.60;;;;;;5078009;28;20299;-82
2022/10/30 13:04:50;;;;;;;;;;;19.00;76.60;;;;;;5099180;28;19969;-82
2022/10/30 13:07:22;;;;;;;;;;;19.10;76.60;;;;;;5091333;28;19930;-82
2022/10/30 13:10:07;;;;;;;;;;;19.10;76.60;;;;;;5078366;28;20420;-81
2022/10/30 13:12:35;;;;;;;;;;;19.10;76.50;;;;;;5080916;28;19920;-82
2022/10/30 13:15:21;;;;;;;;;;;19.20;76.60;;;;;;5079619;28;19963;-81
2022/10/30 13:17:48;;;;;;;;;;;19.20;77.20;;;;;;5079737;28;19919;-83
2022/10/30 13:20:14;;;;;;;;;;;19.20;76.60;;;;;;5069654;28;20416;-84
2022/10/30 13:22:58;;;;;;;;;;;19.30;76.60;;;;;;5069802;28;19924;-82
2022/10/30 13:25:34;;;;;;;;;;;19.30;76.50;;;;;;5085905;28;20007;-81
2022/10/30 13:28:03;;;;;;;;;;;19.30;76.50;;;;;;5063026;28;19921;-82
2022/10/30 13:30:31;;;;;;;;;;;19.40;76.50;;;;;;5090652;28;19960;-82
2022/10/30 13:33:17;;;;;;;;;;;19.40;76.50;;;;;;5080905;28;19948;-82
2022/10/30 13:35:43;;;;;;;;;;;19.40;76.50;;;;;;5079161;28;19994;-81
2022/10/30 13:38:14;;;;;;;;;;;19.40;76.40;;;;;;5071470;28;19944;-83
2022/10/30 13:40:40;;;;;;;;;;;19.40;76.50;;;;;;5093669;28;19912;-82
2022/10/30 13:43:18;;;;;;;;;;;19.50;76.40;;;;;;5095570;27;20367;-81
2022/10/30 13:45:55;;;;;;;;;;;19.50;76.40;;;;;;5084135;28;20284;-82
2022/10/30 13:48:40;;;;;;;;;;;19.60;76.50;;;;;;5080614;28;19938;-82
2022/10/30 13:51:11;;;;;;;;;;;19.60;76.40;;;;;;5079633;28;20399;-82
2022/10/30 13:53:39;;;;;;;;;;;19.60;76.40;;;;;;5078063;28;19928;-84
2022/10/30 13:56:05;;;;;;;;;;;19.70;76.40;;;;;;5087754;28;19919;-82
2022/10/30 13:58:40;;;;;;;;;;;19.70;76.40;;;;;;5081851;28;19922;-81
2022/10/30 14:01:23;;;;;;;;;;;19.70;76.40;;;;;;5106602;27;19998;-81
2022/10/30 14:03:52;;;;;;;;;;;19.70;76.30;;;;;;5078852;28;20719;-81
2022/10/30 14:06:20;;;;;;;;;;;19.80;76.30;;;;;;5102972;27;19916;-81
2022/10/30 14:08:52;;;;;;;;;;;19.80;76.30;;;;;;5093229;28;19947;-82
2022/10/30 14:11:18;;;;;;;;;;;19.80;76.30;;;;;;5077224;28;19916;-81
2022/10/30 14:13:53;;;;;;;;;;;19.90;76.30;;;;;;5080617;28;19916;-82
2022/10/30 14:16:30;;;;;;;;;;;19.90;76.30;;;;;;5082149;28;19908;-82
2022/10/30 14:19:00;;;;;;;;;;;19.90;76.20;;;;;;5103166;28;19964;-81
2022/10/30 14:21:46;;;;;;;;;;;19.90;76.20;;;;;;5099483;28;19913;-82
2022/10/30 14:24:13;;;;;;;;;;;20.00;76.30;;;;;;5101986;28;19912;-82
2022/10/30 14:26:41;;;;;;;;;;;20.00;76.30;;;;;;5095395;28;19934;-83
2022/10/30 14:29:26;;;;;;;;;;;20.00;76.20;;;;;;5100468;28;19912;-83
2022/10/30 14:31:51;;;;;;;;;;;20.00;76.20;;;;;;5109325;28;19920;-83
2022/10/30 14:34:36;;;;;;;;;;;20.00;76.20;;;;;;5090618;28;19925;-82
2022/10/30 14:37:02;;;;;;;;;;;20.00;76.20;;;;;;5088497;28;20007;-81
2022/10/30 14:39:28;;;;;;;;;;;20.10;76.20;;;;;;5096910;28;20350;-81